createdAt,value
2019-05-29T00:02:57.215Z,26.05
2019-05-29T00:08:12.360Z,26.05
2019-05-29T00:10:42.545Z,26.03
2019-05-29T00:13:10.574Z,26.04
2019-05-29T00:15:38.482Z,26.03
2019-05-29T00:18:06.527Z,26.03
2019-05-29T00:20:34.718Z,25.99
2019-05-29T00:23:03.072Z,26.02
2019-05-29T00:25:31.021Z,26.03
2019-05-29T00:27:59.083Z,26.02
2019-05-29T00:30:27.050Z,26.01
2019-05-29T00:32:55.113Z,25.99
2019-05-29T00:35:23.242Z,26.00
2019-05-29T00:37:51.465Z,25.99
2019-05-29T00:42:53.510Z,25.96
2019-05-29T00:45:40.442Z,25.92
2019-05-29T00:48:09.579Z,25.94
2019-05-29T00:50:38.206Z,25.95
2019-05-29T00:53:06.184Z,25.94
2019-05-29T00:55:34.377Z,25.93
2019-05-29T00:58:02.487Z,25.95
2019-05-29T01:00:30.949Z,25.94
2019-05-29T01:03:17.980Z,25.94
2019-05-29T01:05:45.934Z,25.92
2019-05-29T01:08:33.120Z,25.94
2019-05-29T01:11:01.078Z,25.95
2019-05-29T01:13:29.144Z,25.93
2019-05-29T01:18:44.050Z,25.96
2019-05-29T01:21:12.120Z,25.95
2019-05-29T01:23:40.096Z,25.95
2019-05-29T01:28:55.251Z,25.96
2019-05-29T01:31:23.613Z,25.95
2019-05-29T01:36:40.067Z,25.94
2019-05-29T01:39:08.365Z,25.93
2019-05-29T01:41:36.468Z,25.92
2019-05-29T01:44:04.497Z,25.91
2019-05-29T01:46:32.558Z,25.91
2019-05-29T01:49:00.670Z,25.89
2019-05-29T01:51:47.810Z,25.89
2019-05-29T01:54:15.821Z,25.88
2019-05-29T01:56:43.932Z,25.87
2019-05-29T01:59:11.955Z,25.86
2019-05-29T02:01:40.172Z,25.86
2019-05-29T02:04:08.262Z,25.89
2019-05-29T02:06:55.138Z,25.85
2019-05-29T02:09:24.270Z,25.86
2019-05-29T02:11:53.163Z,25.85
2019-05-29T02:14:22.625Z,25.85
2019-05-29T02:16:51.088Z,25.86
2019-05-29T02:19:19.980Z,25.86
2019-05-29T02:21:48.032Z,25.86
2019-05-29T02:24:17.006Z,25.87
2019-05-29T02:26:45.143Z,25.86
2019-05-29T02:29:13.126Z,25.86
2019-05-29T02:31:41.152Z,25.85
2019-05-29T02:34:09.252Z,25.84
2019-05-29T02:36:37.182Z,25.84
2019-05-29T02:39:05.954Z,25.84
2019-05-29T02:41:33.919Z,25.86
2019-05-29T02:44:01.962Z,25.85
2019-05-29T02:46:30.193Z,25.81
2019-05-29T02:48:58.290Z,25.82
2019-05-29T02:51:28.319Z,25.82
2019-05-29T02:53:56.447Z,25.80
2019-05-29T02:56:24.934Z,25.80
2019-05-29T02:58:53.087Z,25.82
2019-05-29T03:01:21.619Z,25.81
2019-05-29T03:03:50.885Z,25.81
2019-05-29T03:06:18.836Z,25.82
2019-05-29T03:08:47.064Z,25.79
2019-05-29T03:11:15.028Z,25.80
2019-05-29T03:13:43.086Z,25.78
2019-05-29T03:16:12.944Z,25.78
2019-05-29T03:18:41.012Z,25.78
2019-05-29T03:21:09.058Z,25.74
2019-05-29T03:23:37.042Z,25.75
2019-05-29T03:26:04.970Z,25.75
2019-05-29T03:28:34.772Z,25.74
2019-05-29T03:31:02.587Z,25.74
2019-05-29T03:33:35.959Z,25.74
2019-05-29T03:36:00.603Z,25.78
2019-05-29T03:38:30.162Z,25.77
2019-05-29T03:40:58.720Z,25.78
2019-05-29T03:43:28.425Z,25.75
2019-05-29T03:45:56.582Z,25.75
2019-05-29T03:48:25.979Z,25.77
2019-05-29T03:50:54.549Z,25.76
2019-05-29T03:53:22.549Z,25.76
2019-05-29T03:55:50.605Z,25.75
2019-05-29T03:58:18.661Z,25.75
2019-05-29T04:00:48.501Z,25.78
2019-05-29T04:03:16.532Z,25.77
2019-05-29T04:05:44.472Z,25.74
2019-05-29T04:08:12.541Z,25.77
2019-05-29T04:10:41.047Z,25.76
2019-05-29T04:13:08.996Z,25.73
2019-05-29T04:15:38.720Z,25.71
2019-05-29T04:18:07.444Z,25.73
2019-05-29T04:20:36.710Z,25.72
2019-05-29T04:23:06.389Z,25.72
2019-05-29T04:25:38.293Z,25.75
2019-05-29T04:28:04.958Z,25.77
2019-05-29T04:30:34.296Z,25.73
2019-05-29T04:33:02.655Z,25.72
2019-05-29T04:35:32.387Z,25.74
2019-05-29T04:38:00.535Z,25.74
2019-05-29T04:40:29.211Z,25.77
2019-05-29T04:42:58.489Z,25.77
2019-05-29T04:45:26.513Z,25.75
2019-05-29T04:47:54.595Z,25.77
2019-05-29T04:50:22.701Z,25.77
2019-05-29T04:52:50.637Z,25.77
2019-05-29T04:55:18.594Z,25.77
2019-05-29T04:57:46.625Z,25.74
2019-05-29T05:00:15.213Z,25.73
2019-05-29T05:02:42.997Z,25.74
2019-05-29T05:05:11.103Z,25.76
2019-05-29T05:07:39.684Z,25.77
2019-05-29T05:10:08.058Z,25.78
2019-05-29T05:12:37.854Z,25.75
2019-05-29T05:15:05.975Z,25.77
2019-05-29T05:17:33.935Z,25.77
2019-05-29T05:20:01.878Z,25.80
2019-05-29T05:22:30.046Z,25.74
2019-05-29T05:24:58.032Z,25.75
2019-05-29T05:27:25.959Z,25.78
2019-05-29T05:29:53.999Z,25.77
2019-05-29T05:32:22.032Z,25.78
2019-05-29T05:34:49.996Z,25.77
2019-05-29T05:37:17.899Z,25.75
2019-05-29T05:39:46.016Z,25.74
2019-05-29T05:42:14.122Z,25.77
2019-05-29T05:44:42.126Z,25.77
2019-05-29T05:47:10.672Z,25.78
2019-05-29T05:49:39.498Z,25.79
2019-05-29T05:52:07.622Z,25.82
2019-05-29T05:54:35.505Z,25.78
2019-05-29T05:57:03.448Z,25.81
2019-05-29T05:59:31.554Z,25.82
2019-05-29T06:01:59.366Z,25.80
2019-05-29T06:04:27.390Z,25.78
2019-05-29T06:06:55.578Z,25.78
2019-05-29T06:09:23.501Z,25.78
2019-05-29T06:11:51.467Z,25.78
2019-05-29T06:14:19.326Z,25.74
2019-05-29T06:16:47.313Z,25.74
2019-05-29T06:19:15.266Z,25.73
2019-05-29T06:21:43.590Z,25.73
2019-05-29T06:24:11.547Z,25.77
2019-05-29T06:26:39.514Z,25.78
2019-05-29T06:29:07.415Z,25.74
2019-05-29T06:31:35.316Z,25.77
2019-05-29T06:34:03.190Z,25.77
2019-05-29T06:36:31.138Z,25.76
2019-05-29T06:38:59.122Z,25.74
2019-05-29T06:41:27.142Z,25.77
2019-05-29T06:43:55.274Z,25.78
2019-05-29T06:46:23.727Z,25.77
2019-05-29T06:48:59.373Z,25.78
2019-05-29T06:51:21.010Z,25.77
2019-05-29T06:53:48.824Z,25.78
2019-05-29T06:56:17.134Z,25.80
2019-05-29T06:58:45.590Z,25.81
2019-05-29T07:01:13.591Z,25.82
2019-05-29T07:03:41.744Z,25.86
2019-05-29T07:06:10.256Z,25.82
2019-05-29T07:08:44.025Z,25.83
2019-05-29T07:11:08.108Z,25.84
2019-05-29T07:13:37.730Z,25.82
2019-05-29T07:16:05.396Z,25.84
2019-05-29T07:18:33.371Z,25.83
2019-05-29T07:21:01.363Z,25.81
2019-05-29T07:23:29.140Z,25.80
2019-05-29T07:25:57.076Z,25.81
2019-05-29T07:28:24.907Z,25.87
2019-05-29T07:31:00.649Z,25.86
2019-05-29T07:33:23.096Z,25.86
2019-05-29T07:35:51.106Z,25.86
2019-05-29T07:38:18.996Z,25.87
2019-05-29T07:40:48.206Z,25.86
2019-05-29T07:43:16.628Z,25.90
2019-05-29T07:45:44.521Z,25.90
2019-05-29T07:48:12.658Z,25.90
2019-05-29T07:50:40.429Z,25.89
2019-05-29T07:53:08.462Z,25.99
2019-05-29T07:55:36.248Z,25.90
2019-05-29T07:58:04.170Z,25.90
2019-05-29T08:00:35.794Z,25.89
2019-05-29T08:03:01.892Z,25.87
2019-05-29T08:05:29.672Z,25.87
2019-05-29T08:07:57.546Z,25.86
2019-05-29T08:10:25.535Z,25.87
2019-05-29T08:12:55.753Z,25.85
2019-05-29T08:15:23.221Z,25.86
2019-05-29T08:17:51.383Z,25.67
2019-05-29T08:20:19.388Z,25.57
2019-05-29T08:22:48.412Z,25.57
2019-05-29T08:25:17.105Z,25.57
2019-05-29T08:27:45.135Z,25.54
2019-05-29T08:30:13.133Z,25.54
2019-05-29T08:32:41.139Z,25.53
2019-05-29T08:35:09.276Z,25.52
2019-05-29T08:37:37.282Z,25.51
2019-05-29T08:40:05.440Z,25.52
2019-05-29T08:42:33.242Z,25.51
2019-05-29T08:45:01.119Z,25.50
2019-05-29T08:47:29.226Z,25.49
2019-05-29T08:50:16.793Z,25.50
2019-05-29T08:52:26.726Z,25.50
2019-05-29T08:55:13.989Z,25.49
2019-05-29T08:57:42.619Z,25.51
2019-05-29T09:00:10.736Z,25.48
2019-05-29T09:02:38.679Z,25.48
2019-05-29T09:05:06.654Z,25.44
2019-05-29T09:07:34.656Z,25.46
2019-05-29T09:10:02.688Z,25.47
2019-05-29T09:12:30.618Z,25.47
2019-05-29T09:14:58.573Z,25.52
2019-05-29T09:17:26.628Z,25.47
2019-05-29T09:19:54.510Z,25.49
2019-05-29T09:22:41.513Z,25.48
2019-05-29T09:25:09.538Z,25.48
2019-05-29T09:27:37.537Z,25.50
2019-05-29T09:32:50.172Z,25.50
2019-05-29T09:35:09.241Z,25.51
2019-05-29T09:37:56.146Z,25.50
2019-05-29T09:40:24.948Z,25.50
2019-05-29T09:42:54.017Z,25.50
2019-05-29T09:45:21.932Z,25.53
2019-05-29T09:47:49.830Z,25.51
2019-05-29T09:50:18.688Z,25.54
2019-05-29T09:52:47.707Z,25.55
2019-05-29T09:55:15.587Z,25.52
2019-05-29T09:57:43.566Z,25.52
2019-05-29T10:00:11.569Z,25.52
2019-05-29T10:02:39.347Z,25.56
2019-05-29T10:05:07.220Z,25.55
2019-05-29T10:07:34.990Z,25.56
2019-05-29T10:10:04.919Z,25.56
2019-05-29T10:12:32.616Z,25.54
2019-05-29T10:15:01.013Z,25.55
2019-05-29T10:20:05.008Z,25.57
2019-05-29T10:22:33.384Z,25.59
2019-05-29T10:25:01.941Z,25.59
2019-05-29T10:27:30.875Z,25.58
2019-05-29T10:29:59.142Z,25.57
2019-05-29T10:32:27.074Z,25.58
2019-05-29T10:34:54.946Z,25.58
2019-05-29T10:37:22.811Z,25.58
2019-05-29T10:40:09.908Z,25.56
2019-05-29T10:42:37.675Z,25.57
2019-05-29T10:48:00.139Z,25.57
2019-05-29T10:50:28.320Z,25.55
2019-05-29T10:52:56.204Z,25.56
2019-05-29T10:55:24.087Z,25.57
2019-05-29T10:57:53.125Z,25.57
2019-05-29T11:00:22.005Z,25.54
2019-05-29T11:02:52.858Z,25.52
2019-05-29T11:05:19.564Z,25.52
2019-05-29T11:07:47.691Z,25.53
2019-05-29T11:12:51.001Z,25.52
2019-05-29T11:15:21.710Z,25.54
2019-05-29T11:23:09.731Z,25.53
2019-05-29T11:25:37.748Z,25.55
2019-05-29T11:28:05.771Z,25.58
2019-05-29T11:30:33.933Z,25.56
2019-05-29T11:33:01.718Z,25.56
2019-05-29T11:35:29.589Z,25.56
2019-05-29T11:37:58.740Z,25.58
2019-05-29T11:40:27.092Z,25.55
2019-05-29T11:42:55.195Z,25.58
2019-05-29T11:48:30.538Z,25.57
2019-05-29T11:51:17.614Z,25.54
2019-05-29T11:53:45.485Z,25.54
2019-05-29T11:56:13.359Z,25.54
2019-05-29T11:58:41.247Z,25.53
2019-05-29T12:01:09.049Z,25.56
2019-05-29T12:03:36.906Z,25.57
2019-05-29T12:06:05.291Z,25.57
2019-05-29T12:08:35.376Z,25.54
2019-05-29T12:11:06.374Z,25.53
2019-05-29T12:13:32.779Z,25.55
2019-05-29T12:16:01.802Z,25.55
2019-05-29T12:18:30.662Z,25.55
2019-05-29T12:20:59.905Z,25.54
2019-05-29T12:23:28.603Z,25.56
2019-05-29T12:26:16.169Z,25.58
2019-05-29T12:28:26.603Z,25.58
2019-05-29T12:30:55.180Z,25.56
2019-05-29T12:33:24.292Z,25.56
2019-05-29T12:35:52.919Z,25.56
2019-05-29T12:38:22.182Z,25.56
2019-05-29T12:40:50.086Z,25.58
2019-05-29T12:43:27.021Z,25.59
2019-05-29T12:45:47.621Z,25.59
2019-05-29T12:48:16.222Z,25.57
2019-05-29T12:50:45.168Z,25.59
2019-05-29T12:53:29.055Z,25.62
2019-05-29T12:55:42.846Z,25.58
2019-05-29T12:58:10.661Z,25.60
2019-05-29T13:00:38.927Z,25.62
2019-05-29T13:03:06.855Z,25.62
2019-05-29T13:05:34.770Z,25.62
2019-05-29T13:08:03.184Z,25.62
2019-05-29T13:10:32.378Z,25.62
2019-05-29T13:13:06.945Z,25.61
2019-05-29T13:15:29.808Z,25.60
2019-05-29T13:18:02.463Z,25.63
2019-05-29T13:20:27.282Z,25.63
2019-05-29T13:22:55.549Z,25.63
2019-05-29T13:25:25.007Z,25.63
2019-05-29T13:27:53.110Z,25.61
2019-05-29T13:30:20.997Z,25.61
2019-05-29T13:32:48.957Z,25.61
2019-05-29T13:35:21.060Z,25.62
2019-05-29T13:40:34.263Z,25.63
2019-05-29T13:43:11.493Z,25.62
2019-05-29T13:45:32.054Z,25.64
2019-05-29T13:48:01.375Z,25.63
2019-05-29T13:50:29.806Z,25.62
2019-05-29T13:52:59.264Z,25.63
2019-05-29T13:55:27.673Z,25.62
2019-05-29T13:57:55.630Z,25.61
2019-05-29T14:00:33.087Z,25.61
2019-05-29T14:02:53.233Z,25.62
2019-05-29T14:05:21.179Z,25.62
2019-05-29T14:07:49.094Z,25.60
2019-05-29T14:10:16.941Z,25.62
2019-05-29T14:12:44.957Z,25.64
2019-05-29T14:15:12.786Z,25.66
2019-05-29T14:17:40.671Z,25.63
2019-05-29T14:20:09.007Z,25.61
2019-05-29T14:22:38.260Z,25.62
2019-05-29T14:25:25.210Z,25.62
2019-05-29T14:27:53.312Z,25.62
2019-05-29T14:30:21.629Z,25.60
2019-05-29T14:32:49.662Z,25.59
2019-05-29T14:35:17.524Z,25.59
2019-05-29T14:37:45.388Z,25.62
2019-05-29T14:43:11.344Z,25.61
2019-05-29T14:45:37.262Z,25.61
2019-05-29T14:48:06.207Z,25.60
2019-05-29T14:50:35.020Z,25.62
2019-05-29T14:53:03.052Z,25.63
2019-05-29T14:58:19.689Z,25.61
2019-05-29T15:00:47.666Z,25.60
2019-05-29T15:03:15.679Z,25.59
2019-05-29T15:05:44.228Z,25.62
2019-05-29T15:08:14.151Z,25.61
2019-05-29T15:10:43.328Z,25.64
2019-05-29T15:13:13.151Z,25.65
2019-05-29T15:15:41.194Z,25.67
2019-05-29T15:18:12.642Z,25.64
2019-05-29T15:23:31.568Z,25.64
2019-05-29T15:25:59.543Z,25.65
2019-05-29T15:28:27.475Z,25.66
2019-05-29T15:30:55.728Z,25.64
2019-05-29T15:33:23.752Z,25.60
2019-05-29T15:35:51.795Z,25.64
2019-05-29T15:38:19.946Z,25.64
2019-05-29T15:40:48.246Z,25.64
2019-05-29T15:43:17.204Z,25.63
2019-05-29T15:45:46.274Z,25.64
2019-05-29T15:48:15.291Z,25.62
2019-05-29T15:50:44.468Z,25.64
2019-05-29T15:53:13.129Z,25.63
2019-05-29T15:55:42.612Z,25.63
2019-05-29T15:58:11.197Z,25.62
2019-05-29T16:00:40.541Z,25.63
2019-05-29T16:03:09.435Z,25.62
2019-05-29T16:05:39.097Z,25.61
2019-05-29T16:08:07.963Z,25.62
2019-05-29T16:10:37.179Z,25.62
2019-05-29T16:13:05.449Z,25.60
2019-05-29T16:15:33.831Z,25.61
2019-05-29T16:18:02.060Z,25.60
2019-05-29T16:20:30.079Z,25.59
2019-05-29T16:25:40.045Z,25.57
2019-05-29T16:30:35.764Z,25.58
2019-05-29T16:33:03.799Z,25.58
2019-05-29T16:35:31.685Z,25.59
2019-05-29T16:37:59.610Z,25.60
2019-05-29T16:40:27.496Z,25.60
2019-05-29T16:42:55.462Z,25.61
2019-05-29T16:45:23.360Z,25.58
2019-05-29T16:47:51.232Z,25.57
2019-05-29T16:50:21.122Z,25.58
2019-05-29T16:52:49.258Z,25.55
2019-05-29T16:55:17.489Z,25.56
2019-05-29T16:57:45.498Z,25.54
2019-05-29T17:00:13.900Z,25.54
2019-05-29T17:05:30.635Z,25.57
2019-05-29T17:07:58.599Z,25.56
2019-05-29T17:10:45.728Z,25.53
2019-05-29T17:13:14.662Z,25.55
2019-05-29T17:16:02.168Z,25.54
2019-05-29T17:18:49.260Z,25.56
2019-05-29T17:21:17.092Z,25.57
2019-05-29T17:23:44.975Z,25.53
2019-05-29T17:26:12.989Z,25.56
2019-05-29T17:28:41.048Z,25.50
2019-05-29T17:31:08.947Z,25.49
2019-05-29T17:33:36.919Z,25.48
2019-05-29T17:36:04.926Z,25.48
2019-05-29T17:41:06.520Z,25.48
2019-05-29T17:43:34.419Z,25.47
2019-05-29T17:46:02.650Z,25.50
2019-05-29T17:48:30.534Z,25.47
2019-05-29T17:51:17.594Z,25.49
2019-05-29T17:53:45.723Z,25.47
2019-05-29T17:56:26.270Z,25.49
2019-05-29T17:59:02.139Z,25.48
2019-05-29T18:01:30.964Z,25.49
2019-05-29T18:04:00.348Z,25.47
2019-05-29T18:06:28.353Z,25.46
2019-05-29T18:08:56.618Z,25.46
2019-05-29T18:11:25.242Z,25.46
2019-05-29T18:14:13.168Z,25.47
2019-05-29T18:16:41.056Z,25.46
2019-05-29T18:19:08.946Z,25.43
2019-05-29T18:21:36.845Z,25.44
2019-05-29T18:24:23.878Z,25.42
2019-05-29T18:26:52.143Z,25.43
2019-05-29T18:29:20.163Z,25.42
2019-05-29T18:31:48.070Z,25.41
2019-05-29T18:34:15.909Z,25.39
2019-05-29T18:36:43.809Z,25.44
2019-05-29T18:39:11.720Z,25.37
2019-05-29T18:41:39.502Z,25.34
2019-05-29T18:44:07.322Z,25.36
2019-05-29T18:46:37.909Z,25.35
2019-05-29T18:49:05.134Z,25.39
2019-05-29T18:51:33.005Z,25.39
2019-05-29T18:54:01.087Z,25.36
2019-05-29T18:56:30.556Z,25.33
2019-05-29T18:58:58.689Z,25.35
2019-05-29T19:01:27.573Z,25.35
2019-05-29T19:03:56.178Z,25.34
2019-05-29T19:06:24.074Z,25.35
2019-05-29T19:08:51.834Z,25.34
2019-05-29T19:11:19.726Z,25.33
2019-05-29T19:13:47.617Z,25.33
2019-05-29T19:16:34.550Z,25.33
2019-05-29T19:19:02.366Z,25.35
2019-05-29T19:21:30.623Z,25.33
2019-05-29T19:24:00.092Z,25.31
2019-05-29T19:26:28.785Z,25.31
2019-05-29T19:31:31.481Z,25.32
2019-05-29T19:33:59.654Z,25.31
2019-05-29T19:36:27.778Z,25.33
2019-05-29T19:38:55.824Z,25.32
2019-05-29T19:41:23.994Z,25.28
2019-05-29T19:43:52.008Z,25.30
2019-05-29T19:46:20.078Z,25.30
2019-05-29T19:48:47.986Z,25.30
2019-05-29T19:51:15.799Z,25.28
2019-05-29T19:53:43.808Z,25.27
2019-05-29T19:56:11.731Z,25.29
2019-05-29T19:58:39.708Z,25.29
2019-05-29T20:01:07.691Z,25.27
2019-05-29T20:03:36.662Z,25.29
2019-05-29T20:06:05.457Z,25.27
2019-05-29T20:08:36.263Z,25.27
2019-05-29T20:11:03.112Z,25.26
2019-05-29T20:13:31.701Z,25.26
2019-05-29T20:18:34.158Z,25.25
2019-05-29T20:21:03.516Z,25.24
2019-05-29T20:26:05.125Z,25.23
2019-05-29T20:28:34.175Z,25.22
2019-05-29T20:31:02.811Z,25.20
2019-05-29T20:33:32.388Z,25.21
2019-05-29T20:36:00.983Z,25.21
2019-05-29T20:38:29.127Z,25.19
2019-05-29T20:40:57.256Z,25.19
2019-05-29T20:43:25.480Z,25.19
2019-05-29T20:46:12.567Z,25.19
2019-05-29T20:48:40.583Z,25.20
2019-05-29T20:51:08.622Z,25.19
2019-05-29T20:53:37.473Z,25.17
2019-05-29T20:56:06.501Z,25.18
2019-05-29T20:58:35.606Z,25.18
2019-05-29T21:01:03.835Z,25.16
2019-05-29T21:03:32.281Z,25.16
2019-05-29T21:06:00.464Z,25.17
2019-05-29T21:08:28.632Z,25.16
2019-05-29T21:10:56.698Z,25.14
2019-05-29T21:13:25.615Z,25.17
2019-05-29T21:16:12.821Z,25.12
2019-05-29T21:18:42.200Z,25.13
2019-05-29T21:21:10.734Z,25.13
2019-05-29T21:23:40.364Z,25.10
2019-05-29T21:26:08.963Z,25.11
2019-05-29T21:28:40.742Z,25.10
2019-05-29T21:31:25.596Z,25.08
2019-05-29T21:33:53.725Z,25.08
2019-05-29T21:36:21.781Z,25.09
2019-05-29T21:38:49.899Z,25.08
2019-05-29T21:41:17.997Z,25.09
2019-05-29T21:43:47.002Z,25.06
2019-05-29T21:46:15.224Z,25.05
2019-05-29T21:48:43.446Z,25.06
2019-05-29T21:51:30.738Z,25.06
2019-05-29T21:53:58.830Z,25.05
2019-05-29T21:56:27.019Z,25.02
2019-05-29T21:59:03.397Z,25.01
2019-05-29T22:01:25.287Z,25.04
2019-05-29T22:06:40.970Z,25.02
2019-05-29T22:12:04.970Z,25.03
2019-05-29T22:14:33.095Z,25.02
2019-05-29T22:17:01.233Z,25.01
2019-05-29T22:19:31.164Z,24.99
2019-05-29T22:21:59.273Z,24.98
2019-05-29T22:24:27.347Z,24.97
2019-05-29T22:26:55.379Z,24.97
2019-05-29T22:29:23.300Z,24.97
2019-05-29T22:31:51.451Z,24.97
2019-05-29T22:34:19.564Z,24.97
2019-05-29T22:37:06.667Z,24.96
2019-05-29T22:39:34.885Z,24.97
2019-05-29T22:42:02.891Z,24.95
2019-05-29T22:44:31.099Z,24.94
2019-05-29T22:46:59.871Z,24.93
2019-05-29T22:49:28.815Z,24.95
2019-05-29T22:51:57.827Z,24.93
2019-05-29T22:54:27.441Z,24.92
2019-05-29T22:56:55.852Z,24.92
2019-05-29T22:59:31.990Z,24.90
2019-05-29T23:01:56.370Z,24.89
2019-05-29T23:04:24.881Z,24.90
2019-05-29T23:06:54.117Z,24.89
2019-05-29T23:09:22.754Z,24.90
2019-05-29T23:11:50.716Z,24.89
2019-05-29T23:14:18.767Z,24.88
2019-05-29T23:16:46.737Z,24.88
2019-05-29T23:19:14.851Z,24.88
2019-05-29T23:21:42.916Z,24.86
2019-05-29T23:24:29.910Z,24.84
2019-05-29T23:26:58.771Z,24.84
2019-05-29T23:29:29.532Z,24.85
2019-05-29T23:31:58.921Z,24.83
2019-05-29T23:34:27.712Z,24.83
2019-05-29T23:36:57.030Z,24.81
2019-05-29T23:39:25.472Z,24.81
2019-05-29T23:41:53.405Z,24.84
2019-05-29T23:44:21.501Z,24.81
2019-05-29T23:46:49.538Z,24.78
2019-05-29T23:49:17.712Z,24.77
2019-05-29T23:51:46.048Z,24.76
2019-05-29T23:54:13.994Z,24.78
2019-05-29T23:57:01.980Z,24.76
2019-05-29T23:59:30.742Z,24.78
